Time,TemperatureF,DewpointF,PressureIn,WindDirection,WindDirectionDegrees,WindSpeedMPH,WindSpeedGustMPH,Humidity,HourlyPrecipIn,Conditions,Clouds,dailyrainin,SoftwareType,DateUTC
2013-03-19 00:06:00,30.0,29.0,29.79,NNE,22,0.0,-999.0,96,-99.99,,,0.00,Acu-Link.com,2013-03-19 04:06:00,
2013-03-19 00:21:00,30.2,29.2,29.79,West,270,0.0,-999.0,96,-99.99,,,0.00,Acu-Link.com,2013-03-19 04:21:00,
2013-03-19 00:37:00,30.4,29.4,29.77,North,0,0.0,-999.0,96,-99.99,,,0.00,Acu-Link.com,2013-03-19 04:37:00,
2013-03-19 00:52:00,30.6,29.6,29.77,ESE,112,0.0,-999.0,96,-99.99,,,0.00,Acu-Link.com,2013-03-19 04:52:00,
2013-03-19 01:07:00,30.6,29.6,29.75,ESE,112,0.0,-999.0,96,-99.99,,,0.00,Acu-Link.com,2013-03-19 05:07:00,
2013-03-19 01:22:00,30.6,29.6,29.76,WNW,292,0.0,-999.0,96,-99.99,,,0.00,Acu-Link.com,2013-03-19 05:22:00,
2013-03-19 01:44:00,30.7,29.7,29.73,NE,45,0.0,-999.0,96,-99.99,,,0.00,Acu-Link.com,2013-03-19 05:44:00,
2013-03-19 02:04:00,30.7,29.7,29.73,NW,315,0.0,-999.0,96,-99.99,,,0.00,Acu-Link.com,2013-03-19 06:04:00,
2013-03-19 02:35:00,30.7,29.7,29.72,WNW,292,0.0,-999.0,96,-99.99,,,0.00,Acu-Link.com,2013-03-19 06:35:00,
2013-03-19 02:50:00,30.9,29.9,29.72,West,270,0.0,-999.0,96,-99.99,,,0.00,Acu-Link.com,2013-03-19 06:50:00,
2013-03-19 03:06:00,30.9,29.9,29.71,South,180,0.0,-999.0,96,-99.99,,,0.00,Acu-Link.com,2013-03-19 07:06:00,
2013-03-19 03:23:00,31.1,30.1,29.71,NNW,337,0.0,-999.0,96,-99.99,,,0.00,Acu-Link.com,2013-03-19 07:23:00,
2013-03-19 03:39:00,31.3,30.3,29.68,South,180,0.0,-999.0,96,-99.99,,,0.00,Acu-Link.com,2013-03-19 07:39:00,
2013-03-19 03:54:00,31.5,30.5,29.67,SE,135,0.0,-999.0,96,-99.99,,,0.00,Acu-Link.com,2013-03-19 07:54:00,
2013-03-19 04:10:00,31.5,30.5,29.68,NE,45,0.0,-999.0,96,-99.99,,,0.00,Acu-Link.com,2013-03-19 08:10:00,
2013-03-19 04:25:00,31.5,30.5,29.67,South,180,0.0,-999.0,96,-99.99,,,0.00,Acu-Link.com,2013-03-19 08:25:00,
2013-03-19 04:55:00,31.6,30.6,29.65,SSE,157,0.0,-999.0,96,-99.99,,,0.00,Acu-Link.com,2013-03-19 08:55:00,
2013-03-19 06:20:00,31.8,31.0,29.64,WSW,247,0.0,-999.0,97,-99.99,,,0.00,Acu-Link.com,2013-03-19 10:20:00,
2013-03-19 06:52:00,32.2,31.4,29.64,East,90,0.0,-999.0,97,-99.99,,,0.00,Acu-Link.com,2013-03-19 10:52:00,
2013-03-19 07:07:00,32.4,31.9,29.67,West,270,0.0,-999.0,98,-99.99,,,0.00,Acu-Link.com,2013-03-19 11:07:00,
2013-03-19 07:23:00,32.4,31.9,29.66,West,270,0.0,-999.0,98,-99.99,,,0.00,Acu-Link.com,2013-03-19 11:23:00,
2013-03-19 07:38:00,32.4,31.9,29.68,South,180,0.0,-999.0,98,-99.99,,,0.00,Acu-Link.com,2013-03-19 11:38:00,
2013-03-19 07:53:00,32.4,31.9,29.67,East,90,0.0,-999.0,98,-99.99,,,0.00,Acu-Link.com,2013-03-19 11:53:00,
2013-03-19 08:09:00,32.5,32.0,29.67,ESE,112,0.0,-999.0,98,-99.99,,,0.00,Acu-Link.com,2013-03-19 12:09:00,
2013-03-19 08:24:00,32.9,32.1,29.67,ESE,112,0.0,-999.0,97,-99.99,,,0.00,Acu-Link.com,2013-03-19 12:24:00,
2013-03-19 08:40:00,34.2,32.9,29.69,South,180,0.0,-999.0,95,-99.99,,,0.00,Acu-Link.com,2013-03-19 12:40:00,
2013-03-19 08:55:00,35.1,33.0,29.69,SSW,202,0.0,-999.0,92,-99.99,,,0.00,Acu-Link.com,2013-03-19 12:55:00,
2013-03-19 09:10:00,36.0,33.4,29.67,SSW,202,0.0,-999.0,90,-99.99,,,0.00,Acu-Link.com,2013-03-19 13:10:00,
2013-03-19 09:26:00,35.4,33.3,29.68,West,270,0.0,-999.0,92,-99.99,,,0.00,Acu-Link.com,2013-03-19 13:26:00,
2013-03-19 09:41:00,35.6,33.2,29.68,WSW,247,0.0,-999.0,91,-99.99,,,0.00,Acu-Link.com,2013-03-19 13:41:00,
2013-03-19 10:12:00,36.0,32.8,29.67,West,270,3.2,-999.0,88,-99.99,,,0.00,Acu-Link.com,2013-03-19 14:12:00,
2013-03-19 10:27:00,40.8,35.1,29.67,SW,225,2.2,-999.0,80,-99.99,,,0.00,Acu-Link.com,2013-03-19 14:27:00,
2013-03-19 10:42:00,37.8,33.4,29.67,West,270,4.2,-999.0,84,-99.99,,,0.01,Acu-Link.com,2013-03-19 14:42:00,
2013-03-19 10:57:00,40.1,34.1,29.66,SW,225,1.7,-999.0,79,-99.99,,,0.09,Acu-Link.com,2013-03-19 14:57:00,
2013-03-19 11:12:00,39.4,34.1,29.66,SW,225,1.7,-999.0,81,-99.99,,,0.28,Acu-Link.com,2013-03-19 15:12:00,
2013-03-19 11:28:00,38.5,34.1,29.64,South,180,1.7,-999.0,84,-99.99,,,0.34,Acu-Link.com,2013-03-19 15:28:00,
2013-03-19 11:43:00,43.0,35.6,29.62,SE,135,2.7,-999.0,75,-99.99,,,0.39,Acu-Link.com,2013-03-19 15:43:00,
2013-03-19 11:58:00,42.3,35.0,29.62,NW,315,0.0,-999.0,75,-99.99,,,0.45,Acu-Link.com,2013-03-19 15:58:00,
2013-03-19 12:14:00,41.5,35.2,29.62,WNW,292,2.2,-999.0,78,-99.99,,,0.50,Acu-Link.com,2013-03-19 16:14:00,
2013-03-19 12:29:00,42.4,35.4,29.62,WNW,292,2.2,-999.0,76,-99.99,,,0.58,Acu-Link.com,2013-03-19 16:29:00,
2013-03-19 12:44:00,44.4,35.9,29.63,WNW,292,2.2,-999.0,72,-99.99,,,0.60,Acu-Link.com,2013-03-19 16:44:00,
2013-03-19 12:59:00,41.7,35.4,29.62,SSW,202,1.7,-999.0,78,-99.99,,,0.63,Acu-Link.com,2013-03-19 16:59:00,
2013-03-19 13:15:00,42.4,35.7,29.62,West,270,2.7,-999.0,77,-99.99,,,0.65,Acu-Link.com,2013-03-19 17:15:00,
2013-03-19 13:30:00,45.0,36.2,29.62,SW,225,2.7,-999.0,71,-99.99,,,0.66,Acu-Link.com,2013-03-19 17:30:00,
2013-03-19 13:45:00,43.7,34.2,29.61,ENE,67,2.7,-999.0,69,-99.99,,,0.67,Acu-Link.com,2013-03-19 17:45:00,
2013-03-19 14:01:00,44.6,34.7,29.60,South,180,1.7,-999.0,68,-99.99,,,0.67,Acu-Link.com,2013-03-19 18:01:00,
2013-03-19 14:31:00,44.1,33.5,29.59,West,270,1.7,-999.0,66,-99.99,,,0.67,Acu-Link.com,2013-03-19 18:31:00,
2013-03-19 14:47:00,46.2,34.3,29.57,SSE,157,3.2,-999.0,63,-99.99,,,0.67,Acu-Link.com,2013-03-19 18:47:00,
2013-03-19 15:02:00,45.0,33.6,29.57,South,180,3.2,-999.0,64,-99.99,,,0.67,Acu-Link.com,2013-03-19 19:02:00,
2013-03-19 15:17:00,46.6,35.5,29.57,SSW,202,2.2,-999.0,65,-99.99,,,0.67,Acu-Link.com,2013-03-19 19:17:00,
2013-03-19 15:33:00,46.9,34.6,29.57,West,270,5.8,-999.0,62,-99.99,,,0.67,Acu-Link.com,2013-03-19 19:33:00,
2013-03-19 15:48:00,45.5,34.4,29.57,WSW,247,2.7,-999.0,65,-99.99,,,0.67,Acu-Link.com,2013-03-19 19:48:00,
2013-03-19 16:04:00,46.4,34.9,29.59,WNW,292,3.7,-999.0,64,-99.99,,,0.67,Acu-Link.com,2013-03-19 20:04:00,
2013-03-19 16:19:00,48.0,32.2,29.58,WNW,292,7.8,-999.0,54,-99.99,,,0.67,Acu-Link.com,2013-03-19 20:19:00,
2013-03-19 16:34:00,46.6,30.9,29.56,West,270,6.3,-999.0,54,-99.99,,,0.67,Acu-Link.com,2013-03-19 20:34:00,
2013-03-19 16:49:00,44.4,30.6,29.58,NNE,22,6.3,-999.0,58,-99.99,,,0.67,Acu-Link.com,2013-03-19 20:49:00,
2013-03-19 17:04:00,45.3,29.6,29.56,West,270,2.7,-999.0,54,-99.99,,,0.67,Acu-Link.com,2013-03-19 21:04:00,
2013-03-19 17:20:00,46.0,30.7,29.57,NNW,337,4.2,-999.0,55,-99.99,,,0.67,Acu-Link.com,2013-03-19 21:20:00,
2013-03-19 17:50:00,45.7,28.6,29.59,WNW,292,4.2,-999.0,51,-99.99,,,0.67,Acu-Link.com,2013-03-19 21:50:00,
2013-03-19 18:37:00,41.4,22.7,29.65,North,0,2.2,-999.0,47,-99.99,,,0.67,Acu-Link.com,2013-03-19 22:37:00,
2013-03-19 22:55:00,32.0,21.6,29.76,West,270,7.3,-999.0,65,-99.99,,,0.67,Acu-Link.com,2013-03-20 02:55:00,
2013-03-19 23:32:00,31.8,20.7,29.79,West,270,4.7,-999.0,63,-99.99,,,0.67,Acu-Link.com,2013-03-20 03:32:00,